createdAt,value
2022-12-17T00:00:49.485Z,24.75
2022-12-17T00:03:35.121Z,25.33
2022-12-17T00:06:20.300Z,24.88
2022-12-17T00:09:24.892Z,22.45
2022-12-17T00:12:09.659Z,23.33
2022-12-17T00:14:54.668Z,24.20
2022-12-17T00:17:41.688Z,22.85
2022-12-17T00:20:26.986Z,23.70
2022-12-17T00:23:18.613Z,24.08
2022-12-17T00:26:08.408Z,23.08
2022-12-17T00:28:53.423Z,23.40
2022-12-17T00:31:38.236Z,24.00
2022-12-17T00:34:23.261Z,24.48
2022-12-17T00:37:09.151Z,23.40
2022-12-17T00:39:59.076Z,24.15
2022-12-17T00:42:44.481Z,21.73
2022-12-17T00:45:29.486Z,23.13
2022-12-17T00:48:14.494Z,23.42
2022-12-17T00:50:59.582Z,22.50
2022-12-17T00:53:44.646Z,22.00
2022-12-17T00:56:29.499Z,23.17
2022-12-17T00:59:14.565Z,21.52
2022-12-17T01:01:59.341Z,22.60
2022-12-17T01:04:44.543Z,22.42
2022-12-17T01:07:29.365Z,21.95
2022-12-17T01:10:14.561Z,22.65
2022-12-17T01:12:59.609Z,23.70
2022-12-17T01:15:44.662Z,22.00
2022-12-17T01:18:35.219Z,22.00
2022-12-17T01:21:20.075Z,22.90
2022-12-17T01:24:04.911Z,23.95
2022-12-17T01:26:49.690Z,21.80
2022-12-17T01:29:34.512Z,24.55
2022-12-17T01:32:19.340Z,19.92
2022-12-17T01:35:04.169Z,21.02
2022-12-17T01:37:49.040Z,22.80
2022-12-17T01:40:34.070Z,21.75
2022-12-17T01:43:19.182Z,23.35
2022-12-17T01:46:05.597Z,22.73
2022-12-17T01:48:52.263Z,22.75
2022-12-17T01:51:37.048Z,21.95
2022-12-17T01:54:22.124Z,23.27
2022-12-17T01:57:07.032Z,23.50
2022-12-17T02:00:11.564Z,23.25
2022-12-17T02:02:56.446Z,22.38
2022-12-17T02:05:43.675Z,22.73
2022-12-17T02:08:34.321Z,22.88
2022-12-17T02:11:23.978Z,23.50
2022-12-17T02:14:44.524Z,20.15
2022-12-17T02:17:33.695Z,22.23
2022-12-17T02:20:37.079Z,21.60
2022-12-17T02:23:34.366Z,23.40
2022-12-17T02:26:22.194Z,22.15
2022-12-17T02:29:08.675Z,19.10
2022-12-17T02:31:54.967Z,21.63
2022-12-17T02:34:39.941Z,22.05
2022-12-17T02:37:24.885Z,22.13
2022-12-17T02:40:10.074Z,21.05
2022-12-17T02:42:55.104Z,20.95
2022-12-17T02:45:40.488Z,23.25
2022-12-17T02:48:26.944Z,22.02
2022-12-17T02:51:12.100Z,22.05
2022-12-17T02:54:04.454Z,22.57
2022-12-17T02:56:49.296Z,22.65
2022-12-17T02:59:34.162Z,21.38
2022-12-17T03:02:19.061Z,20.58
2022-12-17T03:05:27.675Z,22.65
2022-12-17T03:08:09.195Z,22.00
2022-12-17T03:10:53.873Z,20.67
2022-12-17T03:13:45.757Z,22.65
2022-12-17T03:16:37.236Z,21.52
2022-12-17T03:19:22.678Z,21.55
2022-12-17T03:22:07.500Z,21.60
2022-12-17T03:24:52.405Z,22.92
2022-12-17T03:27:37.545Z,20.90
2022-12-17T03:30:22.800Z,20.23
2022-12-17T03:33:07.584Z,23.58
2022-12-17T03:35:52.363Z,22.98
2022-12-17T03:38:37.122Z,21.95
2022-12-17T03:41:26.338Z,22.73
2022-12-17T03:44:11.713Z,21.95
2022-12-17T03:46:56.575Z,22.92
2022-12-17T03:49:41.107Z,23.40
2022-12-17T03:52:25.836Z,23.02
2022-12-17T03:55:10.810Z,22.48
2022-12-17T03:57:55.738Z,25.40
2022-12-17T04:00:40.863Z,24.17
2022-12-17T04:03:25.722Z,23.10
2022-12-17T04:06:10.863Z,23.80
2022-12-17T04:08:55.794Z,23.30
2022-12-17T04:11:40.857Z,23.00
2022-12-17T04:14:25.981Z,24.02
2022-12-17T04:17:10.857Z,24.27
2022-12-17T04:19:56.092Z,22.60
2022-12-17T04:22:40.955Z,23.38
2022-12-17T04:25:25.890Z,22.80
2022-12-17T04:28:10.805Z,24.13
2022-12-17T04:30:55.882Z,21.85
2022-12-17T04:33:40.909Z,23.27
2022-12-17T04:36:25.762Z,23.92
2022-12-17T04:39:10.812Z,24.60
2022-12-17T04:41:55.691Z,24.92
2022-12-17T04:44:40.752Z,24.58
2022-12-17T04:47:25.956Z,24.52
2022-12-17T04:50:10.892Z,25.23
2022-12-17T04:52:55.785Z,24.52
2022-12-17T04:55:40.939Z,25.92
2022-12-17T04:58:26.062Z,22.57
2022-12-17T05:01:11.193Z,25.43
2022-12-17T05:03:56.288Z,23.10
2022-12-17T05:06:41.752Z,24.27
2022-12-17T05:09:26.913Z,23.83
2022-12-17T05:12:11.816Z,24.27
2022-12-17T05:14:56.665Z,24.25
2022-12-17T05:17:41.832Z,25.30
2022-12-17T05:20:26.940Z,24.33
2022-12-17T05:23:11.817Z,24.97
2022-12-17T05:25:56.635Z,24.55
2022-12-17T05:28:41.836Z,25.55
2022-12-17T05:31:27.066Z,27.60
2022-12-17T05:34:12.638Z,25.90
2022-12-17T05:36:57.383Z,25.80
2022-12-17T05:39:42.670Z,26.65
2022-12-17T05:42:27.773Z,25.27
2022-12-17T05:45:32.397Z,25.50
2022-12-17T05:48:17.276Z,25.05
2022-12-17T05:51:02.332Z,23.40
2022-12-17T05:53:47.177Z,24.00
2022-12-17T05:56:32.410Z,23.90
2022-12-17T05:59:17.073Z,24.50
2022-12-17T06:02:02.352Z,23.48
2022-12-17T06:04:47.466Z,25.40
2022-12-17T06:07:32.668Z,24.45
2022-12-17T06:10:17.380Z,24.57
2022-12-17T06:13:06.982Z,24.60
2022-12-17T06:15:51.863Z,23.35
2022-12-17T06:18:36.999Z,23.42
2022-12-17T06:21:21.740Z,25.13
2022-12-17T06:24:06.732Z,24.10
2022-12-17T06:26:51.803Z,24.05
2022-12-17T06:29:36.916Z,24.70
2022-12-17T06:32:22.047Z,25.20
2022-12-17T06:35:07.029Z,22.93
2022-12-17T06:37:51.963Z,24.48
2022-12-17T06:40:36.804Z,25.73
2022-12-17T06:43:21.907Z,24.67
2022-12-17T06:46:06.802Z,27.57
2022-12-17T06:48:51.823Z,23.98
2022-12-17T06:51:36.644Z,24.67
2022-12-17T06:54:21.510Z,26.63
2022-12-17T06:57:06.414Z,25.48
2022-12-17T06:59:51.253Z,25.90
2022-12-17T07:02:36.249Z,26.23
2022-12-17T07:05:21.444Z,24.58
2022-12-17T07:08:06.119Z,23.30
2022-12-17T07:10:51.045Z,23.27
2022-12-17T07:13:37.673Z,23.63
2022-12-17T07:16:22.706Z,23.58
2022-12-17T07:19:07.885Z,24.33
2022-12-17T07:21:52.617Z,26.07
2022-12-17T07:24:37.513Z,22.77
2022-12-17T07:27:22.177Z,24.30
2022-12-17T07:30:07.059Z,24.48
2022-12-17T07:32:51.695Z,21.10
2022-12-17T07:35:37.656Z,22.98
2022-12-17T07:38:23.395Z,23.60
2022-12-17T07:41:08.175Z,24.90
2022-12-17T07:43:53.715Z,25.63
2022-12-17T07:46:38.878Z,24.42
2022-12-17T07:49:25.883Z,24.73
2022-12-17T07:52:11.249Z,27.33
2022-12-17T07:55:12.129Z,25.20
2022-12-17T07:58:00.600Z,23.33
2022-12-17T08:00:49.309Z,26.17
2022-12-17T08:03:34.792Z,26.60
2022-12-17T08:06:20.249Z,25.17
2022-12-17T08:09:05.344Z,24.93
2022-12-17T08:11:50.292Z,27.50
2022-12-17T08:14:35.545Z,26.13
2022-12-17T08:17:20.630Z,26.45
2022-12-17T08:20:05.934Z,27.00
2022-12-17T08:22:50.776Z,26.48
2022-12-17T08:25:35.952Z,24.52
2022-12-17T08:28:49.105Z,26.67
2022-12-17T08:31:25.962Z,25.08
2022-12-17T08:34:11.106Z,29.83
2022-12-17T08:36:55.925Z,28.63
2022-12-17T08:39:41.119Z,28.50
2022-12-17T08:42:25.958Z,29.03
2022-12-17T08:45:11.025Z,27.23
2022-12-17T08:48:00.506Z,25.63
2022-12-17T08:50:48.439Z,30.73
2022-12-17T08:53:35.028Z,28.85
2022-12-17T08:56:20.563Z,28.50
2022-12-17T08:59:05.434Z,30.52
2022-12-17T09:01:50.296Z,25.98
2022-12-17T09:04:35.539Z,28.23
2022-12-17T09:07:21.520Z,27.00
2022-12-17T09:10:06.420Z,29.23
2022-12-17T09:12:51.159Z,27.20
2022-12-17T09:15:35.930Z,28.70
2022-12-17T09:18:20.730Z,26.60
2022-12-17T09:21:10.982Z,27.80
2022-12-17T09:23:55.846Z,27.17
2022-12-17T09:26:41.056Z,28.98
2022-12-17T09:29:25.766Z,29.67
2022-12-17T09:32:11.147Z,30.02
2022-12-17T09:34:55.904Z,28.75
2022-12-17T09:37:48.260Z,24.75
2022-12-17T09:40:39.177Z,27.08
2022-12-17T09:43:52.486Z,27.20
2022-12-17T09:46:46.394Z,26.73
2022-12-17T09:49:41.983Z,26.52
2022-12-17T09:52:33.519Z,26.77
2022-12-17T09:55:18.920Z,27.17
2022-12-17T09:58:04.081Z,26.75
2022-12-17T10:00:49.125Z,25.97
2022-12-17T10:03:36.199Z,27.67
2022-12-17T10:06:24.763Z,24.20
2022-12-17T10:09:11.892Z,26.88
2022-12-17T10:11:56.547Z,25.60
2022-12-17T10:14:42.341Z,26.10
2022-12-17T10:17:34.659Z,25.90
2022-12-17T10:20:19.642Z,23.33
2022-12-17T10:23:08.633Z,24.83
2022-12-17T10:25:54.013Z,23.00
2022-12-17T10:28:40.289Z,25.63
2022-12-17T10:31:28.657Z,24.27
2022-12-17T10:34:14.848Z,25.67
2022-12-17T10:39:44.185Z,22.58
2022-12-17T10:42:41.409Z,24.17
2022-12-17T10:45:42.027Z,24.80
2022-12-17T10:48:36.216Z,24.05
2022-12-17T10:51:21.658Z,24.02
2022-12-17T10:54:07.942Z,24.98
2022-12-17T10:56:52.617Z,23.98
2022-12-17T10:59:49.655Z,24.88
2022-12-17T11:02:39.807Z,22.40
2022-12-17T11:05:31.254Z,22.30
2022-12-17T11:08:17.256Z,22.67
2022-12-17T11:11:02.967Z,23.77
2022-12-17T11:13:50.257Z,24.02
2022-12-17T11:16:45.865Z,22.90
2022-12-17T11:19:30.710Z,22.27
2022-12-17T11:22:20.074Z,23.52
2022-12-17T11:25:09.871Z,22.92
2022-12-17T11:27:59.670Z,23.17
2022-12-17T11:30:45.024Z,25.27
2022-12-17T11:33:36.685Z,32.90
2022-12-17T11:36:39.183Z,25.08
2022-12-17T11:39:29.237Z,24.98
2022-12-17T11:42:14.146Z,20.55
2022-12-17T11:44:58.932Z,22.85
2022-12-17T11:47:43.957Z,24.13
2022-12-17T11:50:28.815Z,22.08
2022-12-17T11:53:27.508Z,18.17
2022-12-17T11:56:20.702Z,23.90
2022-12-17T11:59:05.532Z,22.27
2022-12-17T12:01:53.797Z,23.00
2022-12-17T12:04:39.144Z,22.23
2022-12-17T12:07:43.278Z,23.90
2022-12-17T12:10:36.592Z,20.67
2022-12-17T12:13:40.417Z,21.80
2022-12-17T12:16:31.223Z,23.45
2022-12-17T12:19:36.837Z,23.42
2022-12-17T12:22:31.051Z,24.88
2022-12-17T12:25:22.228Z,23.95
2022-12-17T12:28:12.122Z,23.50
2022-12-17T12:31:05.514Z,23.27
2022-12-17T12:34:05.283Z,25.27
2022-12-17T12:36:50.730Z,24.10
2022-12-17T12:39:38.613Z,26.80
2022-12-17T12:42:34.289Z,24.17
2022-12-17T12:45:25.286Z,24.50
2022-12-17T12:48:14.098Z,23.15
2022-12-17T12:51:03.852Z,22.85
2022-12-17T12:53:48.853Z,24.83
2022-12-17T12:57:03.178Z,23.60
2022-12-17T12:59:49.517Z,24.27
2022-12-17T13:02:45.713Z,23.88
2022-12-17T13:05:35.594Z,23.63
2022-12-17T13:08:03.454Z,23.38
2022-12-17T13:10:30.534Z,24.42
2022-12-17T13:12:59.093Z,22.25
2022-12-17T13:15:33.307Z,24.35
2022-12-17T13:18:02.638Z,25.08
2022-12-17T13:20:30.577Z,25.27
2022-12-17T13:23:15.501Z,26.25
2022-12-17T13:25:43.116Z,25.80
2022-12-17T13:28:28.996Z,25.13
2022-12-17T13:31:02.780Z,26.70
2022-12-17T13:33:47.636Z,24.77
2022-12-17T13:36:14.119Z,26.45
2022-12-17T13:38:40.918Z,27.85
2022-12-17T13:41:10.334Z,25.75
2022-12-17T13:43:44.056Z,26.23
2022-12-17T13:46:46.973Z,24.17
2022-12-17T13:49:18.111Z,26.45
2022-12-17T13:51:44.538Z,25.58
2022-12-17T13:54:18.100Z,26.38
2022-12-17T13:56:45.347Z,25.33
2022-12-17T13:59:18.385Z,23.52
2022-12-17T14:01:45.936Z,25.73
2022-12-17T14:04:19.786Z,26.83
2022-12-17T14:06:46.204Z,24.98
2022-12-17T14:09:17.161Z,25.80
2022-12-17T14:12:02.376Z,26.83
2022-12-17T14:14:30.658Z,25.10
2022-12-17T14:16:56.992Z,26.70
2022-12-17T14:19:24.658Z,25.08
2022-12-17T14:21:51.525Z,23.98
2022-12-17T14:24:18.957Z,27.58
2022-12-17T14:26:51.599Z,24.35
2022-12-17T14:29:25.512Z,24.50
2022-12-17T14:31:52.994Z,27.38
2022-12-17T14:34:19.327Z,27.77
2022-12-17T14:36:46.708Z,28.27
2022-12-17T14:39:17.888Z,25.80
2022-12-17T14:42:02.763Z,25.48
2022-12-17T14:44:30.250Z,26.23
2022-12-17T14:47:13.061Z,26.70
2022-12-17T14:49:53.797Z,24.25
2022-12-17T14:52:34.160Z,26.10
2022-12-17T14:55:00.742Z,24.67
2022-12-17T14:57:27.216Z,27.50
2022-12-17T14:59:53.579Z,28.67
2022-12-17T15:02:26.329Z,26.58
2022-12-17T15:04:55.978Z,25.67
2022-12-17T15:07:26.597Z,27.35
2022-12-17T15:09:56.204Z,24.55
2022-12-17T15:12:24.071Z,27.50
2022-12-17T15:14:50.586Z,23.52
2022-12-17T15:17:16.972Z,25.23
2022-12-17T15:19:43.235Z,26.00
2022-12-17T15:22:16.738Z,25.60
2022-12-17T15:24:44.217Z,24.98
2022-12-17T15:27:14.979Z,26.75
2022-12-17T15:29:41.343Z,25.20
2022-12-17T15:32:07.762Z,24.98
2022-12-17T15:34:34.044Z,23.45
2022-12-17T15:37:00.425Z,27.13
2022-12-17T15:39:26.751Z,26.83
2022-12-17T15:42:12.133Z,26.27
2022-12-17T15:44:38.520Z,28.02
2022-12-17T15:47:04.868Z,25.77
2022-12-17T15:49:31.125Z,26.30
2022-12-17T15:51:57.432Z,26.52
2022-12-17T15:54:25.103Z,26.00
2022-12-17T15:56:52.653Z,26.40
2022-12-17T15:59:18.918Z,26.45
2022-12-17T16:01:45.391Z,26.48
2022-12-17T16:04:19.099Z,25.90
2022-12-17T16:06:49.472Z,28.75
2022-12-17T16:09:15.734Z,26.70
2022-12-17T16:11:42.453Z,26.10
2022-12-17T16:14:08.883Z,26.45
2022-12-17T16:16:35.289Z,24.23
2022-12-17T16:19:02.014Z,25.30
2022-12-17T16:21:28.759Z,25.63
2022-12-17T16:23:54.998Z,25.65
2022-12-17T16:26:21.293Z,25.88
2022-12-17T16:28:47.631Z,25.73
2022-12-17T16:31:15.093Z,24.30
2022-12-17T16:33:42.604Z,23.35
2022-12-17T16:36:12.296Z,23.45
2022-12-17T16:38:45.477Z,24.70
2022-12-17T16:41:12.453Z,25.58
2022-12-17T16:43:39.270Z,24.55
2022-12-17T16:46:11.994Z,26.52
2022-12-17T16:48:39.577Z,23.30
2022-12-17T16:51:15.618Z,25.25
2022-12-17T16:56:08.665Z,21.67
2022-12-17T16:58:35.420Z,22.73
2022-12-17T17:01:01.908Z,24.92
2022-12-17T17:03:28.284Z,25.52
2022-12-17T17:05:59.549Z,24.17
2022-12-17T17:08:25.812Z,24.27
2022-12-17T17:10:52.191Z,25.48
2022-12-17T17:13:18.473Z,28.05
2022-12-17T17:15:44.775Z,27.23
2022-12-17T17:18:11.553Z,27.20
2022-12-17T17:20:37.923Z,25.40
2022-12-17T17:23:04.459Z,25.35
2022-12-17T17:25:44.278Z,26.60
2022-12-17T17:28:17.003Z,28.23
2022-12-17T17:30:43.347Z,26.63
2022-12-17T17:33:09.627Z,25.23
2022-12-17T17:35:36.080Z,25.30
2022-12-17T17:38:02.329Z,25.88
2022-12-17T17:40:28.584Z,24.08
2022-12-17T17:42:54.901Z,26.40
2022-12-17T17:45:21.200Z,24.60
2022-12-17T17:47:47.492Z,24.52
2022-12-17T17:50:14.368Z,26.63
2022-12-17T17:52:40.660Z,27.27
2022-12-17T17:55:07.281Z,25.20
2022-12-17T17:57:33.848Z,25.02
2022-12-17T18:00:00.187Z,24.10
2022-12-17T18:02:26.679Z,25.33
2022-12-17T18:04:53.144Z,23.80
2022-12-17T18:07:27.859Z,23.08
2022-12-17T18:09:55.156Z,23.52
2022-12-17T18:12:40.150Z,23.40
2022-12-17T18:15:15.858Z,22.85
2022-12-17T18:17:44.342Z,24.08
2022-12-17T18:20:11.075Z,24.38
2022-12-17T18:22:37.619Z,23.98
2022-12-17T18:25:04.372Z,22.42
2022-12-17T18:27:30.699Z,24.23
2022-12-17T18:29:56.968Z,23.52
2022-12-17T18:32:23.298Z,23.20
2022-12-17T18:34:49.703Z,22.85
2022-12-17T18:37:16.021Z,23.38
2022-12-17T18:39:42.902Z,22.73
2022-12-17T18:42:27.907Z,23.17
2022-12-17T18:44:54.154Z,23.50
2022-12-17T18:47:21.340Z,23.35
2022-12-17T18:49:48.004Z,22.85
2022-12-17T18:52:17.047Z,25.05
2022-12-17T18:54:44.844Z,22.42
2022-12-17T18:57:11.415Z,25.88
2022-12-17T18:59:38.494Z,24.38
2022-12-17T19:02:05.044Z,24.75
2022-12-17T19:04:32.903Z,26.42
2022-12-17T19:06:59.487Z,25.50
2022-12-17T19:09:28.107Z,25.63
2022-12-17T19:11:54.885Z,24.95
2022-12-17T19:14:22.547Z,24.50
2022-12-17T19:16:53.189Z,23.60
2022-12-17T19:19:19.596Z,21.40
2022-12-17T19:21:46.020Z,24.58
2022-12-17T19:24:14.465Z,23.00
2022-12-17T19:26:41.450Z,24.90
2022-12-17T19:29:08.652Z,25.05
2022-12-17T19:31:35.557Z,24.38
2022-12-17T19:34:06.526Z,25.83
2022-12-17T19:36:34.074Z,25.27
2022-12-17T19:39:02.562Z,24.05
2022-12-17T19:41:31.863Z,23.98
2022-12-17T19:43:59.530Z,26.17
2022-12-17T19:46:26.169Z,24.95
2022-12-17T19:48:53.036Z,23.33
2022-12-17T19:51:21.840Z,25.05
2022-12-17T19:53:48.542Z,21.75
2022-12-17T19:56:19.306Z,22.15
2022-12-17T19:58:46.618Z,22.85
2022-12-17T20:01:17.118Z,22.25
2022-12-17T20:03:44.542Z,24.73
2022-12-17T20:06:12.212Z,24.10
2022-12-17T20:08:39.104Z,23.55
2022-12-17T20:11:29.526Z,25.33
2022-12-17T20:13:56.938Z,24.92
2022-12-17T20:16:24.430Z,24.42
2022-12-17T20:18:51.234Z,25.15
2022-12-17T20:21:17.534Z,23.08
2022-12-17T20:23:46.385Z,24.20
2022-12-17T20:26:13.330Z,24.48
2022-12-17T20:28:40.035Z,25.45
2022-12-17T20:31:06.791Z,24.92
2022-12-17T20:33:33.253Z,25.25
2022-12-17T20:36:10.158Z,24.58
2022-12-17T20:38:37.963Z,25.95
2022-12-17T20:41:15.385Z,26.15
2022-12-17T20:43:42.469Z,26.45
2022-12-17T20:46:11.757Z,27.92
2022-12-17T20:48:39.702Z,25.95
2022-12-17T20:51:09.623Z,25.13
2022-12-17T20:53:37.534Z,22.58
2022-12-17T20:56:05.428Z,23.95
2022-12-17T20:58:31.856Z,23.20
2022-12-17T21:01:02.530Z,24.75
2022-12-17T21:03:29.004Z,24.48
2022-12-17T21:05:55.336Z,25.30
2022-12-17T21:08:21.684Z,27.08
2022-12-17T21:10:47.984Z,24.88
2022-12-17T21:13:29.912Z,25.38
2022-12-17T21:15:59.853Z,25.42
2022-12-17T21:18:26.873Z,24.05
2022-12-17T21:20:56.238Z,25.42
2022-12-17T21:23:22.573Z,24.67
2022-12-17T21:25:56.865Z,27.20
2022-12-17T21:28:23.693Z,25.85
2022-12-17T21:30:50.029Z,25.42
2022-12-17T21:33:16.329Z,24.88
2022-12-17T21:35:42.677Z,25.52
2022-12-17T21:38:09.159Z,25.48
2022-12-17T21:40:37.756Z,23.50
2022-12-17T21:43:04.183Z,25.73
2022-12-17T21:45:40.838Z,25.85
2022-12-17T21:48:13.580Z,24.77
2022-12-17T21:50:42.649Z,24.55
2022-12-17T21:53:10.430Z,23.15
2022-12-17T21:55:37.234Z,23.85
2022-12-17T21:58:03.652Z,23.92
2022-12-17T22:00:29.963Z,24.67
2022-12-17T22:02:56.485Z,24.17
2022-12-17T22:05:23.053Z,24.00
2022-12-17T22:07:49.375Z,23.58
2022-12-17T22:10:20.466Z,24.92
2022-12-17T22:13:23.310Z,25.17
2022-12-17T22:15:49.709Z,22.45
2022-12-17T22:18:16.053Z,23.23
2022-12-17T22:20:42.677Z,24.40
2022-12-17T22:23:08.962Z,24.02
2022-12-17T22:25:36.595Z,26.08
2022-12-17T22:28:03.005Z,23.80
2022-12-17T22:30:48.359Z,25.40
2022-12-17T22:33:20.947Z,25.02
2022-12-17T22:37:00.696Z,22.95
2022-12-17T22:42:30.507Z,21.75
2022-12-17T22:44:15.000Z,20.80
2022-12-17T22:44:53.168Z,21.02
2022-12-17T22:47:21.156Z,18.70
2022-12-17T22:49:47.518Z,21.50
2022-12-17T22:52:14.558Z,19.25
2022-12-17T22:54:44.422Z,20.10
2022-12-17T22:57:35.016Z,21.38
2022-12-17T22:59:59.541Z,20.92
2022-12-17T23:02:25.968Z,19.83
2022-12-17T23:04:52.237Z,19.52
2022-12-17T23:07:18.537Z,21.17
2022-12-17T23:09:44.795Z,20.55
2022-12-17T23:12:29.844Z,23.13
2022-12-17T23:14:56.096Z,20.40
2022-12-17T23:17:22.399Z,20.75
2022-12-17T23:19:49.014Z,21.70
2022-12-17T23:22:18.912Z,22.85
2022-12-17T23:24:48.402Z,21.20
2022-12-17T23:27:14.729Z,23.35
2022-12-17T23:29:41.543Z,21.75
2022-12-17T23:32:07.869Z,23.92
2022-12-17T23:34:34.125Z,20.90
2022-12-17T23:37:00.439Z,21.38
2022-12-17T23:39:26.909Z,23.10
2022-12-17T23:41:56.339Z,23.23
2022-12-17T23:44:22.738Z,23.65
2022-12-17T23:46:49.011Z,22.42
2022-12-17T23:49:15.399Z,21.13
2022-12-17T23:51:41.744Z,21.25
2022-12-17T23:54:08.113Z,22.33
2022-12-17T23:56:35.260Z,22.00
2022-12-17T23:59:02.799Z,23.15
